createdAt,value
2022-10-15T00:02:05.606Z,4.57
2022-10-15T00:04:32.079Z,4.58
2022-10-15T00:06:58.639Z,4.62
2022-10-15T00:09:25.289Z,4.61
2022-10-15T00:11:51.780Z,4.64
2022-10-15T00:14:18.671Z,4.70
2022-10-15T00:16:45.619Z,4.74
2022-10-15T00:19:12.511Z,4.74
2022-10-15T00:21:39.484Z,4.72
2022-10-15T00:24:06.415Z,4.70
2022-10-15T00:26:32.920Z,4.71
2022-10-15T00:29:02.510Z,4.78
2022-10-15T00:31:31.326Z,4.86
2022-10-15T00:34:00.121Z,4.86
2022-10-15T00:36:31.966Z,4.90
2022-10-15T00:38:59.294Z,4.89
2022-10-15T00:41:32.767Z,4.89
2022-10-15T00:44:02.018Z,4.85
2022-10-15T00:46:33.467Z,4.86
2022-10-15T00:49:22.477Z,4.91
2022-10-15T00:51:56.016Z,4.96
2022-10-15T00:54:23.406Z,4.96
2022-10-15T00:56:50.716Z,4.96
2022-10-15T00:59:20.034Z,5.00
2022-10-15T01:01:46.701Z,5.03
2022-10-15T01:04:13.794Z,5.04
2022-10-15T01:06:40.724Z,5.12
2022-10-15T01:09:07.277Z,5.17
2022-10-15T01:11:45.059Z,5.18
2022-10-15T01:14:35.159Z,5.18
2022-10-15T01:17:27.912Z,5.17
2022-10-15T01:20:15.742Z,5.17
2022-10-15T01:23:23.670Z,5.13
2022-10-15T01:26:01.476Z,5.08
2022-10-15T01:28:39.799Z,5.03
2022-10-15T01:31:24.306Z,4.96
2022-10-15T01:34:06.185Z,4.98
2022-10-15T01:36:32.617Z,4.95
2022-10-15T01:39:23.339Z,4.90
2022-10-15T01:41:54.329Z,4.79
2022-10-15T01:44:27.736Z,4.75
2022-10-15T01:47:01.202Z,4.75
2022-10-15T01:49:33.119Z,4.77
2022-10-15T01:52:06.492Z,4.72
2022-10-15T01:54:34.572Z,4.81
2022-10-15T01:57:03.255Z,4.85
2022-10-15T01:59:32.751Z,4.92
2022-10-15T02:01:59.405Z,5.00
2022-10-15T02:04:30.886Z,5.04
2022-10-15T02:07:03.180Z,5.09
2022-10-15T02:09:33.765Z,5.06
2022-10-15T02:12:07.316Z,5.10
2022-10-15T02:14:43.831Z,5.11
2022-10-15T02:17:11.468Z,5.17
2022-10-15T02:19:56.480Z,5.22
2022-10-15T02:22:32.570Z,5.20
2022-10-15T02:25:06.210Z,5.22
2022-10-15T02:27:35.215Z,5.22
2022-10-15T02:30:07.768Z,5.19
2022-10-15T02:32:37.387Z,5.14
2022-10-15T02:35:06.121Z,5.12
2022-10-15T02:37:34.820Z,5.17
2022-10-15T02:40:01.719Z,5.22
2022-10-15T02:42:28.600Z,5.24
2022-10-15T02:44:55.123Z,5.28
2022-10-15T02:47:21.755Z,5.35
2022-10-15T02:49:48.361Z,5.41
2022-10-15T02:52:14.840Z,5.43
2022-10-15T02:54:41.360Z,5.46
2022-10-15T02:57:07.829Z,5.48
2022-10-15T02:59:34.274Z,5.52
2022-10-15T03:02:01.171Z,5.53
2022-10-15T03:04:27.699Z,5.53
2022-10-15T03:06:54.557Z,5.60
2022-10-15T03:09:21.070Z,5.64
2022-10-15T03:11:47.532Z,5.63
2022-10-15T03:14:14.088Z,5.66
2022-10-15T03:16:40.656Z,5.66
2022-10-15T03:19:07.168Z,5.71
2022-10-15T03:21:33.788Z,5.74
2022-10-15T03:24:00.365Z,5.73
2022-10-15T03:26:26.911Z,5.77
2022-10-15T03:28:53.610Z,5.72
2022-10-15T03:31:20.253Z,5.70
2022-10-15T03:33:46.928Z,5.70
2022-10-15T03:36:13.448Z,5.66
2022-10-15T03:38:40.045Z,5.67
2022-10-15T03:41:06.528Z,5.67
2022-10-15T03:43:33.930Z,5.70
2022-10-15T03:46:02.931Z,5.68
2022-10-15T03:48:29.760Z,5.62
2022-10-15T03:50:56.763Z,5.57
2022-10-15T03:53:24.189Z,5.62
2022-10-15T03:55:50.681Z,5.62
2022-10-15T03:58:17.348Z,5.60
2022-10-15T04:00:45.233Z,5.55
2022-10-15T04:03:11.736Z,5.55
2022-10-15T04:05:38.209Z,5.61
2022-10-15T04:08:04.911Z,5.60
2022-10-15T04:10:31.439Z,5.63
2022-10-15T04:12:57.924Z,5.63
2022-10-15T04:15:24.508Z,5.66
2022-10-15T04:17:54.346Z,5.66
2022-10-15T04:20:20.809Z,5.68
2022-10-15T04:22:47.459Z,5.69
2022-10-15T04:25:14.052Z,5.71
2022-10-15T04:27:40.524Z,5.75
2022-10-15T04:30:07.523Z,5.79
2022-10-15T04:32:34.438Z,5.87
2022-10-15T04:35:00.996Z,5.89
2022-10-15T04:37:27.576Z,5.92
2022-10-15T04:39:54.054Z,5.93
2022-10-15T04:42:20.532Z,6.00
2022-10-15T04:44:47.037Z,6.03
2022-10-15T04:47:13.511Z,6.05
2022-10-15T04:49:39.997Z,6.10
2022-10-15T04:52:06.516Z,6.16
2022-10-15T04:54:32.991Z,6.20
2022-10-15T04:56:59.476Z,6.23
2022-10-15T04:59:26.293Z,6.30
2022-10-15T05:01:52.787Z,6.38
2022-10-15T05:04:19.254Z,6.41
2022-10-15T05:06:46.056Z,6.42
2022-10-15T05:09:12.602Z,6.44
2022-10-15T05:11:39.164Z,6.51
2022-10-15T05:14:06.403Z,6.56
2022-10-15T05:16:33.196Z,6.63
2022-10-15T05:19:02.789Z,6.65
2022-10-15T05:21:30.104Z,6.69
2022-10-15T05:23:57.387Z,6.71
2022-10-15T05:26:26.125Z,6.81
2022-10-15T05:28:52.901Z,6.87
2022-10-15T05:31:24.390Z,6.91
2022-10-15T05:33:52.784Z,7.00
2022-10-15T05:36:23.826Z,7.07
2022-10-15T05:38:55.899Z,7.09
2022-10-15T05:41:23.116Z,7.17
2022-10-15T05:43:51.178Z,7.24
2022-10-15T05:46:18.535Z,7.26
2022-10-15T05:48:52.834Z,7.28
2022-10-15T05:51:19.732Z,7.34
2022-10-15T05:53:46.396Z,7.41
2022-10-15T05:56:16.258Z,7.49
2022-10-15T05:58:42.819Z,7.50
2022-10-15T06:01:11.851Z,7.55
2022-10-15T06:03:40.182Z,7.58
2022-10-15T06:06:21.028Z,7.58
2022-10-15T06:08:48.173Z,7.59
2022-10-15T06:11:15.176Z,7.69
2022-10-15T06:13:43.403Z,7.73
2022-10-15T06:16:11.060Z,7.85
2022-10-15T06:18:38.415Z,7.89
2022-10-15T06:21:09.571Z,7.90
2022-10-15T06:23:36.758Z,7.89
2022-10-15T06:26:08.763Z,8.01
2022-10-15T06:28:36.357Z,8.06
2022-10-15T06:31:03.843Z,8.12
2022-10-15T06:33:31.932Z,8.12
2022-10-15T06:36:10.879Z,8.18
2022-10-15T06:38:37.625Z,8.24
2022-10-15T06:41:05.326Z,8.35
2022-10-15T06:43:34.787Z,8.46
2022-10-15T06:46:03.582Z,8.48
2022-10-15T06:48:30.103Z,8.56
2022-10-15T06:50:58.891Z,8.60
2022-10-15T06:53:25.365Z,8.67
2022-10-15T06:55:51.918Z,8.71
2022-10-15T06:58:18.411Z,8.80
2022-10-15T07:00:44.893Z,8.89
2022-10-15T07:03:11.435Z,8.96
2022-10-15T07:05:38.000Z,8.97
2022-10-15T07:08:05.051Z,9.04
2022-10-15T07:10:31.604Z,9.11
2022-10-15T07:13:02.197Z,9.15
2022-10-15T07:15:29.395Z,9.15
2022-10-15T07:17:56.651Z,9.19
2022-10-15T07:20:24.505Z,9.27
2022-10-15T07:22:55.693Z,9.37
2022-10-15T07:25:22.155Z,9.42
2022-10-15T07:27:48.718Z,9.49
2022-10-15T07:30:15.273Z,9.50
2022-10-15T07:32:44.483Z,9.60
2022-10-15T07:35:13.548Z,9.58
2022-10-15T07:37:40.642Z,9.70
2022-10-15T07:40:07.637Z,9.78
2022-10-15T07:42:34.217Z,9.80
2022-10-15T07:45:00.735Z,9.78
2022-10-15T07:47:27.264Z,9.70
2022-10-15T07:49:53.824Z,9.77
2022-10-15T07:52:20.378Z,9.73
2022-10-15T07:54:46.897Z,9.77
2022-10-15T07:57:13.450Z,9.83
2022-10-15T07:59:39.926Z,9.95
2022-10-15T08:02:06.395Z,9.96
2022-10-15T08:04:33.032Z,9.98
2022-10-15T08:06:59.508Z,10.07
2022-10-15T08:09:25.960Z,10.18
2022-10-15T08:11:52.488Z,10.18
2022-10-15T08:14:18.986Z,10.15
2022-10-15T08:16:45.462Z,10.14
2022-10-15T08:19:12.152Z,10.21
2022-10-15T08:21:39.615Z,10.25
2022-10-15T08:24:07.327Z,10.21
2022-10-15T08:26:34.884Z,10.21
2022-10-15T08:29:01.796Z,10.25
2022-10-15T08:31:28.528Z,10.38
2022-10-15T08:33:55.249Z,10.37
2022-10-15T08:36:21.721Z,10.49
2022-10-15T08:38:48.211Z,10.65
2022-10-15T08:41:40.475Z,10.73
2022-10-15T08:44:15.569Z,10.86
2022-10-15T08:46:48.998Z,10.97
2022-10-15T08:49:34.209Z,11.06
2022-10-15T08:52:17.512Z,11.12
2022-10-15T08:54:44.022Z,11.22
2022-10-15T08:57:41.274Z,11.35
2022-10-15T09:00:24.736Z,11.46
2022-10-15T09:02:51.305Z,11.47
2022-10-15T09:05:29.635Z,11.56
2022-10-15T09:08:13.814Z,11.74
2022-10-15T09:10:53.296Z,11.78
2022-10-15T09:13:39.480Z,11.76
2022-10-15T09:16:15.422Z,11.83
2022-10-15T09:18:46.086Z,11.78
2022-10-15T09:21:13.869Z,11.71
2022-10-15T09:23:41.350Z,11.84
2022-10-15T09:26:16.595Z,11.98
2022-10-15T09:28:55.135Z,12.02
2022-10-15T09:31:28.887Z,12.01
2022-10-15T09:34:22.853Z,12.14
2022-10-15T09:37:00.790Z,12.25
2022-10-15T09:40:04.345Z,12.23
2022-10-15T09:42:42.743Z,12.41
2022-10-15T09:45:15.286Z,12.45
2022-10-15T09:47:43.803Z,12.51
2022-10-15T09:50:15.121Z,12.33
2022-10-15T09:52:50.576Z,12.35
2022-10-15T09:55:41.790Z,12.41
2022-10-15T09:58:19.082Z,12.38
2022-10-15T10:00:54.670Z,12.60
2022-10-15T10:03:23.284Z,12.60
2022-10-15T10:05:50.705Z,12.67
2022-10-15T10:08:27.996Z,12.69
2022-10-15T10:10:58.998Z,12.82
2022-10-15T10:13:30.608Z,12.92
2022-10-15T10:16:11.487Z,13.00
2022-10-15T10:18:38.342Z,12.95
2022-10-15T10:21:20.254Z,13.04
2022-10-15T10:23:46.906Z,13.00
2022-10-15T10:26:13.837Z,13.14
2022-10-15T10:28:49.489Z,13.22
2022-10-15T10:31:16.596Z,13.34
2022-10-15T10:33:50.028Z,13.28
2022-10-15T10:36:32.742Z,13.10
2022-10-15T10:39:11.387Z,13.13
2022-10-15T10:42:30.661Z,12.99
2022-10-15T10:45:18.574Z,12.93
2022-10-15T10:47:45.905Z,13.04
2022-10-15T10:50:31.558Z,13.04
2022-10-15T10:52:58.786Z,13.09
2022-10-15T10:55:37.124Z,13.03
2022-10-15T10:58:04.432Z,13.06
2022-10-15T11:00:49.148Z,12.90
2022-10-15T11:03:36.976Z,13.05
2022-10-15T11:06:12.369Z,13.01
2022-10-15T11:08:38.919Z,12.96
2022-10-15T11:11:33.546Z,12.90
2022-10-15T11:14:20.498Z,12.77
2022-10-15T11:17:00.203Z,12.70
2022-10-15T11:20:12.558Z,12.61
2022-10-15T11:23:09.044Z,12.49
2022-10-15T11:26:20.018Z,12.40
2022-10-15T11:28:55.432Z,12.35
2022-10-15T11:32:01.740Z,12.34
2022-10-15T11:35:08.646Z,12.25
2022-10-15T11:38:02.963Z,12.15
2022-10-15T11:40:32.710Z,12.10
2022-10-15T11:43:21.087Z,12.08
2022-10-15T11:45:55.220Z,12.03
2022-10-15T11:49:02.996Z,12.00
2022-10-15T11:51:32.182Z,12.02
2022-10-15T11:54:04.689Z,11.93
2022-10-15T11:56:38.732Z,11.90
2022-10-15T11:59:28.039Z,11.77
2022-10-15T12:02:00.894Z,11.75
2022-10-15T12:04:36.316Z,11.70
2022-10-15T12:07:06.724Z,11.56
2022-10-15T12:09:40.551Z,11.50
2022-10-15T12:12:25.543Z,11.45
2022-10-15T12:15:18.824Z,11.39
2022-10-15T12:17:47.982Z,11.44
2022-10-15T12:20:18.194Z,11.48
2022-10-15T12:22:47.392Z,11.48
2022-10-15T12:25:35.938Z,11.51
2022-10-15T12:28:08.483Z,11.50
2022-10-15T12:30:36.890Z,11.44
2022-10-15T12:33:22.628Z,11.43
2022-10-15T12:36:00.450Z,11.37
2022-10-15T12:38:31.111Z,11.31
2022-10-15T12:41:10.346Z,11.25
2022-10-15T12:43:48.136Z,11.19
2022-10-15T12:46:14.836Z,11.15
2022-10-15T12:48:43.506Z,11.05
2022-10-15T12:51:22.027Z,11.03
2022-10-15T12:53:50.836Z,10.94
2022-10-15T12:56:17.263Z,10.93
2022-10-15T12:58:47.747Z,10.91
2022-10-15T13:01:14.238Z,10.91
2022-10-15T13:03:54.020Z,10.90
2022-10-15T13:06:20.442Z,10.85
2022-10-15T13:08:54.458Z,10.78
2022-10-15T13:11:26.339Z,10.76
2022-10-15T13:14:02.410Z,10.72
2022-10-15T13:16:30.094Z,10.69
2022-10-15T13:18:56.709Z,10.64
2022-10-15T13:22:09.312Z,10.66
2022-10-15T13:24:41.668Z,10.63
2022-10-15T13:27:16.665Z,10.61
2022-10-15T13:30:13.741Z,10.59
2022-10-15T13:32:50.330Z,10.50
2022-10-15T13:35:28.162Z,10.47
2022-10-15T13:37:57.272Z,10.37
2022-10-15T13:40:29.117Z,10.34
2022-10-15T13:42:59.905Z,10.31
2022-10-15T13:45:26.812Z,10.27
2022-10-15T13:47:54.400Z,10.24
2022-10-15T13:50:25.780Z,10.24
2022-10-15T13:53:08.973Z,10.15
2022-10-15T13:55:38.512Z,10.10
2022-10-15T13:58:27.619Z,10.08
2022-10-15T14:01:09.563Z,10.04
2022-10-15T14:03:37.904Z,9.98
2022-10-15T14:06:17.508Z,9.91
2022-10-15T14:08:44.785Z,9.87
2022-10-15T14:11:12.893Z,9.82
2022-10-15T14:13:47.668Z,9.75
2022-10-15T14:16:28.430Z,9.75
2022-10-15T14:19:10.010Z,9.72
2022-10-15T14:21:42.771Z,9.70
2022-10-15T14:24:14.581Z,9.68
2022-10-15T14:26:41.584Z,9.68
2022-10-15T14:29:19.095Z,9.69
2022-10-15T14:31:48.107Z,9.66
2022-10-15T14:34:34.826Z,9.62
2022-10-15T14:37:03.201Z,9.57
2022-10-15T14:39:35.100Z,9.51
2022-10-15T14:42:04.530Z,9.47
2022-10-15T14:44:41.649Z,9.40
2022-10-15T14:47:19.596Z,9.37
2022-10-15T14:49:46.541Z,9.33
2022-10-15T14:52:16.863Z,9.31
2022-10-15T14:54:51.335Z,9.27
2022-10-15T14:57:30.494Z,9.22
2022-10-15T14:59:57.894Z,9.24
2022-10-15T15:02:27.517Z,9.25
2022-10-15T15:05:08.588Z,9.19
2022-10-15T15:07:35.065Z,9.17
2022-10-15T15:10:01.589Z,9.15
2022-10-15T15:12:29.035Z,9.09
2022-10-15T15:14:55.708Z,9.04
2022-10-15T15:17:24.823Z,8.99
2022-10-15T15:19:53.974Z,8.96
2022-10-15T15:22:30.762Z,8.89
2022-10-15T15:25:00.307Z,8.84
2022-10-15T15:27:29.202Z,8.76
2022-10-15T15:29:56.246Z,8.70
2022-10-15T15:32:24.783Z,8.60
2022-10-15T15:34:53.616Z,8.49
2022-10-15T15:37:22.798Z,8.38
2022-10-15T15:39:50.033Z,8.33
2022-10-15T15:42:19.905Z,8.22
2022-10-15T15:44:47.024Z,8.12
2022-10-15T15:47:14.037Z,8.04
2022-10-15T15:49:41.000Z,8.02
2022-10-15T15:52:11.643Z,7.96
2022-10-15T15:54:38.225Z,7.97
2022-10-15T15:57:04.758Z,7.95
2022-10-15T15:59:31.243Z,7.92
2022-10-15T16:01:57.863Z,7.88
2022-10-15T16:04:24.421Z,7.86
2022-10-15T16:06:50.866Z,7.78
2022-10-15T16:09:18.537Z,7.69
2022-10-15T16:11:45.613Z,7.56
2022-10-15T16:14:12.107Z,7.44
2022-10-15T16:16:38.757Z,7.36
2022-10-15T16:19:05.539Z,7.23
2022-10-15T16:21:32.432Z,7.09
2022-10-15T16:26:30.508Z,6.79
2022-10-15T16:28:56.965Z,6.65
2022-10-15T16:31:29.522Z,6.58
2022-10-15T16:33:57.342Z,6.48
2022-10-15T16:36:24.379Z,6.42
2022-10-15T16:38:50.917Z,6.40
2022-10-15T16:41:18.492Z,6.36
2022-10-15T16:43:45.612Z,6.25
2022-10-15T16:46:12.141Z,6.22
2022-10-15T16:48:38.630Z,6.13
2022-10-15T16:51:11.000Z,6.01
2022-10-15T16:53:38.876Z,5.94
2022-10-15T16:56:08.366Z,5.86
2022-10-15T16:58:34.999Z,5.78
2022-10-15T17:01:04.352Z,5.72
2022-10-15T17:03:34.225Z,5.70
2022-10-15T17:06:02.468Z,5.63
2022-10-15T17:08:37.091Z,5.60
2022-10-15T17:11:03.672Z,5.61
2022-10-15T17:13:30.135Z,5.64
2022-10-15T17:15:59.201Z,5.68
2022-10-15T17:18:28.196Z,5.69
2022-10-15T17:20:54.740Z,5.63
2022-10-15T17:23:21.286Z,5.58
2022-10-15T17:25:47.768Z,5.54
2022-10-15T17:28:15.039Z,5.49
2022-10-15T17:30:41.689Z,5.45
2022-10-15T17:33:08.426Z,5.37
2022-10-15T17:35:38.075Z,5.33
2022-10-15T17:38:04.755Z,5.27
2022-10-15T17:40:31.421Z,5.24
2022-10-15T17:42:57.940Z,5.18
2022-10-15T17:45:24.859Z,5.13
2022-10-15T17:47:51.312Z,5.14
2022-10-15T17:50:17.798Z,5.07
2022-10-15T17:52:44.350Z,4.94
2022-10-15T17:55:10.849Z,4.89
2022-10-15T17:57:37.318Z,4.79
2022-10-15T18:00:05.003Z,4.68
2022-10-15T18:02:31.487Z,4.60
2022-10-15T18:04:57.956Z,4.61
2022-10-15T18:07:24.740Z,4.57
2022-10-15T18:09:51.347Z,4.54
2022-10-15T18:12:17.810Z,4.50
2022-10-15T18:14:44.394Z,4.43
2022-10-15T18:17:10.873Z,4.38
2022-10-15T18:19:37.390Z,4.30
2022-10-15T18:22:04.013Z,4.24
2022-10-15T18:24:30.511Z,4.23
2022-10-15T18:26:56.959Z,4.23
2022-10-15T18:29:23.529Z,4.17
2022-10-15T18:31:56.208Z,4.07
2022-10-15T18:34:24.126Z,4.04
2022-10-15T18:36:50.684Z,4.00
2022-10-15T18:39:17.166Z,3.92
2022-10-15T18:44:16.119Z,3.81
2022-10-15T18:46:43.287Z,3.77
2022-10-15T18:49:09.763Z,3.74
2022-10-15T18:51:36.758Z,3.70
2022-10-15T18:54:03.696Z,3.64
2022-10-15T18:56:30.165Z,3.57
2022-10-15T18:58:56.913Z,3.58
2022-10-15T19:01:30.412Z,3.54
2022-10-15T19:03:59.525Z,3.50
2022-10-15T19:06:29.916Z,3.47
2022-10-15T19:09:00.492Z,3.43
2022-10-15T19:11:27.553Z,3.38
2022-10-15T19:13:57.141Z,3.35
2022-10-15T19:16:23.975Z,3.31
2022-10-15T19:18:50.505Z,3.29
2022-10-15T19:21:17.124Z,3.29
2022-10-15T19:23:43.604Z,3.28
2022-10-15T19:26:11.919Z,3.26
2022-10-15T19:28:38.672Z,3.21
2022-10-15T19:31:07.794Z,3.21
2022-10-15T19:33:34.620Z,3.16
2022-10-15T19:36:01.888Z,3.13
2022-10-15T19:38:28.565Z,3.09
2022-10-15T19:40:55.473Z,2.97
2022-10-15T19:43:23.082Z,2.91
2022-10-15T19:45:49.765Z,2.87
2022-10-15T19:48:19.149Z,2.84
2022-10-15T19:50:47.146Z,2.83
2022-10-15T19:53:17.157Z,2.82
2022-10-15T19:55:54.528Z,2.79
2022-10-15T19:58:21.013Z,2.79
2022-10-15T20:00:51.726Z,2.79
2022-10-15T20:03:18.851Z,2.73
2022-10-15T20:05:46.615Z,2.67
2022-10-15T20:08:13.883Z,2.71
2022-10-15T20:10:41.683Z,2.73
2022-10-15T20:13:08.633Z,2.77
2022-10-15T20:15:35.172Z,2.75
2022-10-15T20:18:01.754Z,2.70
2022-10-15T20:20:28.215Z,2.65
2022-10-15T20:22:54.689Z,2.61
2022-10-15T20:25:21.217Z,2.53
2022-10-15T20:27:47.704Z,2.54
2022-10-15T20:30:14.267Z,2.53
2022-10-15T20:32:40.974Z,2.53
2022-10-15T20:35:08.399Z,2.51
2022-10-15T20:37:34.922Z,2.50
2022-10-15T20:40:01.538Z,2.53
2022-10-15T20:42:28.247Z,2.57
2022-10-15T20:44:55.103Z,2.52
2022-10-15T20:47:23.383Z,2.50
2022-10-15T20:49:53.746Z,2.45
2022-10-15T20:52:23.211Z,2.40
2022-10-15T20:54:51.079Z,2.32
2022-10-15T20:57:17.579Z,2.35
2022-10-15T20:59:44.043Z,2.33
2022-10-15T21:02:10.620Z,2.33
2022-10-15T21:04:37.082Z,2.29
2022-10-15T21:07:03.608Z,2.24
2022-10-15T21:09:30.112Z,2.18
2022-10-15T21:11:56.584Z,2.17
2022-10-15T21:14:23.436Z,2.09
2022-10-15T21:16:50.073Z,2.03
2022-10-15T21:19:16.597Z,2.03
2022-10-15T21:21:43.059Z,2.01
2022-10-15T21:24:09.621Z,1.95
2022-10-15T21:26:36.265Z,1.91
2022-10-15T21:29:02.802Z,1.87
2022-10-15T21:31:29.458Z,1.83
2022-10-15T21:33:56.357Z,1.79
2022-10-15T21:36:27.992Z,1.77
2022-10-15T21:38:56.873Z,1.78
2022-10-15T21:41:24.636Z,1.82
2022-10-15T21:43:51.520Z,1.76
2022-10-15T21:46:18.937Z,1.77
2022-10-15T21:48:45.896Z,1.72
2022-10-15T21:51:14.950Z,1.72
2022-10-15T21:53:41.937Z,1.69
2022-10-15T21:56:08.932Z,1.59
2022-10-15T21:58:36.619Z,1.56
2022-10-15T22:01:21.317Z,1.51
2022-10-15T22:03:49.465Z,1.45
2022-10-15T22:06:16.902Z,1.49
2022-10-15T22:08:43.842Z,1.52
2022-10-15T22:11:13.457Z,1.56
2022-10-15T22:13:43.779Z,1.57
2022-10-15T22:16:11.456Z,1.55
2022-10-15T22:18:38.477Z,1.55
2022-10-15T22:21:13.381Z,1.51
2022-10-15T22:23:39.867Z,1.46
2022-10-15T22:26:06.327Z,1.44
2022-10-15T22:28:32.957Z,1.43
2022-10-15T22:31:05.196Z,1.39
2022-10-15T22:33:31.816Z,1.36
2022-10-15T22:36:06.405Z,1.33
2022-10-15T22:38:33.568Z,1.35
2022-10-15T22:41:00.035Z,1.38
2022-10-15T22:43:26.616Z,1.37
2022-10-15T22:45:53.088Z,1.35
2022-10-15T22:48:19.541Z,1.32
2022-10-15T22:50:46.047Z,1.26
2022-10-15T22:53:12.507Z,1.22
2022-10-15T22:55:38.981Z,1.27
2022-10-15T22:58:05.545Z,1.28
2022-10-15T23:00:31.994Z,1.32
2022-10-15T23:02:58.467Z,1.27
2022-10-15T23:05:25.038Z,1.22
2022-10-15T23:07:52.009Z,1.19
2022-10-15T23:10:18.464Z,1.17
2022-10-15T23:12:45.077Z,1.17
2022-10-15T23:15:11.519Z,1.15
2022-10-15T23:17:37.977Z,1.14
2022-10-15T23:20:04.996Z,1.12
2022-10-15T23:22:31.471Z,1.10
2022-10-15T23:24:57.949Z,1.08
2022-10-15T23:27:24.644Z,1.04
2022-10-15T23:30:01.788Z,1.02
2022-10-15T23:32:38.169Z,1.03
2022-10-15T23:35:06.966Z,1.04
2022-10-15T23:37:33.905Z,1.12
2022-10-15T23:40:00.429Z,1.17
2022-10-15T23:42:26.901Z,1.26
2022-10-15T23:44:53.358Z,1.32
2022-10-15T23:47:19.880Z,1.32
2022-10-15T23:49:46.346Z,1.35
2022-10-15T23:52:12.812Z,1.34
2022-10-15T23:54:39.424Z,1.33
2022-10-15T23:57:05.921Z,1.29
2022-10-15T23:59:32.471Z,1.32
